createdAt,value
2018-04-06T00:01:44.623Z,18.80
2018-04-06T00:04:12.681Z,12.73
2018-04-06T00:06:40.688Z,7.15
2018-04-06T00:09:08.357Z,7.97
2018-04-06T00:11:36.422Z,16.12
2018-04-06T00:14:04.827Z,13.93
2018-04-06T00:16:33.280Z,12.13
2018-04-06T00:19:01.664Z,11.45
2018-04-06T00:21:29.384Z,16.58
2018-04-06T00:23:57.034Z,12.07
2018-04-06T00:26:24.701Z,14.25
2018-04-06T00:28:53.178Z,9.63
2018-04-06T00:31:21.224Z,16.02
2018-04-06T00:33:48.900Z,15.20
2018-04-06T00:36:17.649Z,17.12
2018-04-06T00:38:45.713Z,25.15
2018-04-06T00:41:13.412Z,16.40
2018-04-06T00:43:42.549Z,13.20
2018-04-06T00:46:11.331Z,11.05
2018-04-06T00:48:39.011Z,11.70
2018-04-06T00:51:06.739Z,11.02
2018-04-06T00:53:46.661Z,12.98
2018-04-06T00:56:14.774Z,10.88
2018-04-06T00:58:42.391Z,9.70
2018-04-06T01:01:10.076Z,11.48
2018-04-06T01:03:38.523Z,15.80
2018-04-06T01:06:06.942Z,8.90
2018-04-06T01:08:35.360Z,9.25
2018-04-06T01:11:03.011Z,10.27
2018-04-06T01:13:30.680Z,7.43
2018-04-06T01:15:59.500Z,15.00
2018-04-06T01:18:27.622Z,14.80
2018-04-06T01:20:56.035Z,15.05
2018-04-06T01:23:23.699Z,14.82
2018-04-06T01:25:51.342Z,11.57
2018-04-06T01:28:19.765Z,16.87
2018-04-06T01:30:48.222Z,10.15
2018-04-06T01:33:16.703Z,12.98
2018-04-06T01:35:44.365Z,10.00
2018-04-06T01:38:12.006Z,16.25
2018-04-06T01:40:39.686Z,15.05
2018-04-06T01:43:08.109Z,17.05
2018-04-06T01:45:36.517Z,14.25
2018-04-06T01:48:04.156Z,8.43
2018-04-06T01:50:33.391Z,10.20
2018-04-06T01:53:01.038Z,6.68
2018-04-06T01:55:29.852Z,9.07
2018-04-06T01:57:57.552Z,6.18
2018-04-06T02:00:25.188Z,7.65
2018-04-06T02:02:53.612Z,12.07
2018-04-06T02:05:22.056Z,6.37
2018-04-06T02:07:49.761Z,14.05
2018-04-06T02:10:17.446Z,12.65
2018-04-06T02:12:45.906Z,11.50
2018-04-06T02:15:13.557Z,7.15
2018-04-06T02:17:41.967Z,9.82
2018-04-06T02:20:09.580Z,8.88
2018-04-06T02:22:37.668Z,9.70
2018-04-06T02:25:05.785Z,9.60
2018-04-06T02:27:34.160Z,7.22
2018-04-06T02:30:02.586Z,8.73
2018-04-06T02:32:31.074Z,10.32
2018-04-06T02:34:59.921Z,10.27
2018-04-06T02:37:28.003Z,10.52
2018-04-06T02:39:56.258Z,11.05
2018-04-06T02:42:23.946Z,14.07
2018-04-06T02:44:52.049Z,11.88
2018-04-06T02:47:20.476Z,13.13
2018-04-06T02:49:48.533Z,12.82
2018-04-06T02:52:17.382Z,14.68
2018-04-06T02:54:45.818Z,16.10
2018-04-06T02:57:13.932Z,10.77
2018-04-06T02:59:42.352Z,14.20
2018-04-06T03:02:10.837Z,16.35
2018-04-06T03:04:39.213Z,19.27
2018-04-06T03:07:07.266Z,18.67
2018-04-06T03:09:35.740Z,16.83
2018-04-06T03:12:03.398Z,12.85
2018-04-06T03:14:31.811Z,14.18
2018-04-06T03:17:00.226Z,10.48
2018-04-06T03:19:28.371Z,12.90
2018-04-06T03:21:56.010Z,19.67
2018-04-06T03:24:23.620Z,8.23
2018-04-06T03:26:51.666Z,10.60
2018-04-06T03:29:19.314Z,9.93
2018-04-06T03:31:47.721Z,11.80
2018-04-06T03:34:16.139Z,8.77
2018-04-06T03:36:44.584Z,10.88
2018-04-06T03:39:13.072Z,10.10
2018-04-06T03:41:41.105Z,13.07
2018-04-06T03:44:09.138Z,11.48
2018-04-06T03:46:37.612Z,10.50
2018-04-06T03:49:05.298Z,11.60
2018-04-06T03:51:32.988Z,9.65
2018-04-06T03:54:01.394Z,15.85
2018-04-06T03:56:29.511Z,11.63
2018-04-06T03:58:58.322Z,15.00
2018-04-06T04:01:27.514Z,7.75
2018-04-06T04:03:55.635Z,11.55
2018-04-06T04:06:23.312Z,13.27
2018-04-06T04:08:51.029Z,11.88
2018-04-06T04:11:19.113Z,9.35
2018-04-06T04:13:47.203Z,13.02
2018-04-06T04:16:14.902Z,10.75
2018-04-06T04:18:43.022Z,13.25
2018-04-06T04:21:10.674Z,10.38
2018-04-06T04:23:39.102Z,14.90
2018-04-06T04:26:07.524Z,9.93
2018-04-06T04:28:35.942Z,18.58
2018-04-06T04:31:05.133Z,16.00
2018-04-06T04:33:32.768Z,6.65
2018-04-06T04:36:01.166Z,10.02
2018-04-06T04:38:29.604Z,9.70
2018-04-06T04:40:57.247Z,14.65
2018-04-06T04:43:25.679Z,16.00
2018-04-06T04:45:54.105Z,14.90
2018-04-06T04:48:22.573Z,17.48
2018-04-06T04:50:50.266Z,15.10
2018-04-06T04:53:18.665Z,12.25
2018-04-06T04:55:46.744Z,18.40
2018-04-06T04:58:14.375Z,7.35
2018-04-06T05:00:42.429Z,11.12
2018-04-06T05:03:10.135Z,12.88
2018-04-06T05:05:38.618Z,13.85
2018-04-06T05:08:07.037Z,11.07
2018-04-06T05:10:34.691Z,17.15
2018-04-06T05:13:02.804Z,10.32
2018-04-06T05:15:30.809Z,10.60
2018-04-06T05:17:58.489Z,7.70
2018-04-06T05:20:26.170Z,11.55
2018-04-06T05:22:54.643Z,11.80
2018-04-06T05:25:23.783Z,11.52
2018-04-06T05:27:51.478Z,11.30
2018-04-06T05:30:19.147Z,19.52
2018-04-06T05:32:47.206Z,20.62
2018-04-06T05:35:14.949Z,18.40
2018-04-06T05:37:42.996Z,8.25
2018-04-06T05:40:11.074Z,11.15
2018-04-06T05:42:39.508Z,18.17
2018-04-06T05:45:07.533Z,16.27
2018-04-06T05:47:35.921Z,13.77
2018-04-06T05:50:04.420Z,14.63
2018-04-06T05:52:32.857Z,8.10
2018-04-06T05:55:01.240Z,17.95
2018-04-06T05:57:29.682Z,7.75
2018-04-06T05:59:58.138Z,8.05
2018-04-06T06:02:26.548Z,12.32
2018-04-06T06:04:54.911Z,11.32
2018-04-06T06:07:23.334Z,13.05
2018-04-06T06:09:51.776Z,8.82
2018-04-06T06:12:19.440Z,15.10
2018-04-06T06:14:47.512Z,14.10
2018-04-06T06:17:16.012Z,10.88
2018-04-06T06:19:43.704Z,16.17
2018-04-06T06:22:11.390Z,11.25
2018-04-06T06:24:39.841Z,14.98
2018-04-06T06:27:07.518Z,9.55
2018-04-06T06:29:35.177Z,18.45
2018-04-06T06:32:02.877Z,11.93
2018-04-06T06:34:31.300Z,11.60
2018-04-06T06:36:59.722Z,12.18
2018-04-06T06:39:27.359Z,6.90
2018-04-06T06:41:55.073Z,11.05
2018-04-06T06:44:23.890Z,19.03
2018-04-06T06:46:52.669Z,16.27
2018-04-06T06:49:21.392Z,9.50
2018-04-06T06:51:49.034Z,11.03
2018-04-06T06:54:17.174Z,15.90
2018-04-06T06:56:45.237Z,7.60
2018-04-06T06:59:13.477Z,12.20
2018-04-06T07:01:41.223Z,13.27
2018-04-06T07:04:10.048Z,12.03
2018-04-06T07:06:38.660Z,11.17
2018-04-06T07:09:07.574Z,20.10
2018-04-06T07:11:36.011Z,9.63
2018-04-06T07:14:05.076Z,10.20
2018-04-06T07:16:33.106Z,13.70
2018-04-06T07:19:02.244Z,10.47
2018-04-06T07:21:30.293Z,16.00
2018-04-06T07:23:58.748Z,14.50
2018-04-06T07:26:27.218Z,13.23
2018-04-06T07:28:55.276Z,14.97
2018-04-06T07:31:23.824Z,14.87
2018-04-06T07:33:51.499Z,13.77
2018-04-06T07:36:20.030Z,18.87
2018-04-06T07:38:47.706Z,21.30
2018-04-06T07:41:15.891Z,10.93
2018-04-06T07:43:44.307Z,17.80
2018-04-06T07:46:12.388Z,16.20
2018-04-06T07:48:40.118Z,16.63
2018-04-06T07:51:08.556Z,14.73
2018-04-06T07:53:36.607Z,15.60
2018-04-06T07:56:04.270Z,11.87
2018-04-06T07:58:31.969Z,12.27
2018-04-06T08:00:59.630Z,17.07
2018-04-06T08:03:27.786Z,14.93
2018-04-06T08:05:55.436Z,11.97
2018-04-06T08:08:23.129Z,12.13
2018-04-06T08:10:50.837Z,12.03
2018-04-06T08:13:18.888Z,13.40
2018-04-06T08:15:46.655Z,12.83
2018-04-06T08:18:15.084Z,11.67
2018-04-06T08:20:42.775Z,11.73
2018-04-06T08:23:11.803Z,12.63
2018-04-06T08:25:39.872Z,14.93
2018-04-06T08:28:07.945Z,12.73
2018-04-06T08:30:35.560Z,14.43
2018-04-06T08:33:03.647Z,15.27
2018-04-06T08:35:32.072Z,14.53
2018-04-06T08:38:00.652Z,14.53
2018-04-06T08:40:28.306Z,16.17
2018-04-06T08:42:56.399Z,17.10
2018-04-06T08:45:24.364Z,13.13
2018-04-06T08:47:52.046Z,16.20
2018-04-06T08:50:19.720Z,11.10
2018-04-06T08:52:47.359Z,11.50
2018-04-06T08:55:15.410Z,13.30
2018-04-06T08:57:43.096Z,15.00
2018-04-06T09:00:10.737Z,12.80
2018-04-06T09:02:38.805Z,11.30
2018-04-06T09:05:06.435Z,15.00
2018-04-06T09:07:35.210Z,14.07
2018-04-06T09:10:03.017Z,9.83
2018-04-06T09:12:30.721Z,14.30
2018-04-06T09:14:59.158Z,15.43
2018-04-06T09:17:27.198Z,9.67
2018-04-06T09:19:55.688Z,12.53
2018-04-06T09:22:24.084Z,14.13
2018-04-06T09:24:51.709Z,12.00
2018-04-06T09:27:19.426Z,12.47
2018-04-06T09:29:47.092Z,16.53
2018-04-06T09:32:14.802Z,13.07
2018-04-06T09:34:43.955Z,8.87
2018-04-06T09:37:11.648Z,13.03
2018-04-06T09:39:40.397Z,7.13
2018-04-06T09:42:08.836Z,11.40
2018-04-06T09:44:37.235Z,9.40
2018-04-06T09:47:04.909Z,7.70
2018-04-06T09:49:32.979Z,8.77
2018-04-06T09:52:01.890Z,7.77
2018-04-06T09:54:29.567Z,7.87
2018-04-06T09:56:57.190Z,7.13
2018-04-06T09:59:24.872Z,9.87
2018-04-06T10:01:56.330Z,9.67
2018-04-06T10:04:25.535Z,8.07
2018-04-06T10:06:53.182Z,8.57
2018-04-06T10:09:20.806Z,7.13
2018-04-06T10:11:49.221Z,9.47
2018-04-06T10:14:16.844Z,10.17
2018-04-06T10:16:45.310Z,8.93
2018-04-06T10:19:12.949Z,9.73
2018-04-06T10:21:40.602Z,6.67
2018-04-06T10:24:08.265Z,6.40
2018-04-06T10:26:35.922Z,7.03
2018-04-06T10:29:03.557Z,7.60
2018-04-06T10:31:31.210Z,5.23
2018-04-06T10:33:59.633Z,5.17
2018-04-06T10:36:27.761Z,4.17
2018-04-06T10:38:55.380Z,5.17
2018-04-06T10:41:24.565Z,3.80
2018-04-06T10:43:52.352Z,3.63
2018-04-06T10:46:20.857Z,4.57
2018-04-06T10:48:50.022Z,4.20
2018-04-06T10:51:17.724Z,8.53
2018-04-06T10:53:45.370Z,4.97
2018-04-06T10:56:13.446Z,5.03
2018-04-06T10:58:41.866Z,5.40
2018-04-06T11:01:09.651Z,5.93
2018-04-06T11:03:37.288Z,7.37
2018-04-06T11:06:06.437Z,3.70
2018-04-06T11:08:34.892Z,5.83
2018-04-06T11:11:02.588Z,4.30
2018-04-06T11:13:30.242Z,4.43
2018-04-06T11:15:58.250Z,3.33
2018-04-06T11:18:25.925Z,4.03
2018-04-06T11:20:53.629Z,2.77
2018-04-06T11:23:21.858Z,7.40
2018-04-06T11:25:49.554Z,4.13
2018-04-06T11:28:17.228Z,2.80
2018-04-06T11:30:44.863Z,4.07
2018-04-06T11:33:12.547Z,4.30
2018-04-06T11:35:40.190Z,5.13
2018-04-06T11:38:07.868Z,6.20
2018-04-06T11:40:37.052Z,3.03
2018-04-06T11:43:05.169Z,5.07
2018-04-06T11:45:33.600Z,4.70
2018-04-06T11:48:01.281Z,4.00
2018-04-06T11:50:29.422Z,3.03
2018-04-06T11:52:57.044Z,3.03
2018-04-06T11:55:25.137Z,5.13
2018-04-06T11:57:52.801Z,4.43
2018-04-06T12:00:20.516Z,2.33
2018-04-06T12:02:48.190Z,3.57
2018-04-06T12:05:15.870Z,9.00
2018-04-06T12:07:44.364Z,7.43
2018-04-06T12:10:11.975Z,3.10
2018-04-06T12:12:39.655Z,10.73
2018-04-06T12:15:07.672Z,4.07
2018-04-06T12:17:36.131Z,3.63
2018-04-06T12:20:03.848Z,5.00
2018-04-06T12:22:32.265Z,4.07
2018-04-06T12:25:01.403Z,7.33
2018-04-06T12:27:29.130Z,6.60
2018-04-06T12:29:57.512Z,8.37
2018-04-06T12:32:25.186Z,6.13
2018-04-06T12:34:52.811Z,4.10
2018-04-06T12:37:20.490Z,4.70
2018-04-06T12:39:48.904Z,8.73
2018-04-06T12:42:16.559Z,7.73
2018-04-06T12:44:44.211Z,6.03
2018-04-06T12:47:11.853Z,4.87
2018-04-06T12:49:40.285Z,5.27
2018-04-06T12:52:08.324Z,6.43
2018-04-06T12:54:36.738Z,5.97
2018-04-06T12:57:05.206Z,4.27
2018-04-06T12:59:32.886Z,8.10
2018-04-06T13:02:00.532Z,6.67
2018-04-06T13:04:28.209Z,5.93
2018-04-06T13:06:55.909Z,6.53
2018-04-06T13:09:24.331Z,5.50
2018-04-06T13:11:51.950Z,8.37
2018-04-06T13:14:20.389Z,6.23
2018-04-06T13:16:48.037Z,4.83
2018-04-06T13:19:15.680Z,4.30
2018-04-06T13:21:43.384Z,5.97
2018-04-06T13:24:11.430Z,9.90
2018-04-06T13:26:39.122Z,7.57
2018-04-06T13:29:06.812Z,3.93
2018-04-06T13:31:35.996Z,7.13
2018-04-06T13:34:04.072Z,7.93
2018-04-06T13:36:32.518Z,7.30
2018-04-06T13:39:00.173Z,7.03
2018-04-06T13:41:27.839Z,6.37
2018-04-06T13:43:55.487Z,8.33
2018-04-06T13:46:24.271Z,7.03
2018-04-06T13:48:51.969Z,3.43
2018-04-06T13:51:19.618Z,6.10
2018-04-06T13:53:47.680Z,6.10
2018-04-06T13:56:15.358Z,3.63
2018-04-06T13:58:43.821Z,4.50
2018-04-06T14:01:11.514Z,6.23
2018-04-06T14:03:39.980Z,5.53
2018-04-06T14:06:07.634Z,4.47
2018-04-06T14:08:35.669Z,3.93
2018-04-06T14:11:04.120Z,3.40
2018-04-06T14:13:32.911Z,5.30
2018-04-06T14:16:00.584Z,3.80
2018-04-06T14:18:29.041Z,3.57
2018-04-06T14:20:57.548Z,3.60
2018-04-06T14:23:25.581Z,2.83
2018-04-06T14:25:53.630Z,6.80
2018-04-06T14:28:21.254Z,6.20
2018-04-06T14:30:49.650Z,4.93
2018-04-06T14:33:17.712Z,4.47
2018-04-06T14:35:46.125Z,4.77
2018-04-06T14:38:13.782Z,6.07
2018-04-06T14:40:41.488Z,3.90
2018-04-06T14:43:09.227Z,3.53
2018-04-06T14:45:36.867Z,4.20
2018-04-06T14:48:04.505Z,4.50
2018-04-06T14:50:33.738Z,7.27
2018-04-06T14:53:02.132Z,4.83
2018-04-06T14:55:29.748Z,5.57
2018-04-06T14:57:58.381Z,4.73
2018-04-06T15:00:26.427Z,4.03
2018-04-06T15:02:54.900Z,4.43
2018-04-06T15:05:22.528Z,3.53
2018-04-06T15:07:51.504Z,3.90
2018-04-06T15:10:19.156Z,4.53
2018-04-06T15:12:47.595Z,4.03
2018-04-06T15:15:15.211Z,5.00
2018-04-06T15:17:42.889Z,3.53
2018-04-06T15:20:11.340Z,3.83
2018-04-06T15:22:38.988Z,4.17
2018-04-06T15:25:06.623Z,5.20
2018-04-06T15:27:34.309Z,4.13
2018-04-06T15:30:01.958Z,4.70
2018-04-06T15:32:29.604Z,3.20
2018-04-06T15:34:57.251Z,3.97
2018-04-06T15:37:24.892Z,3.97
2018-04-06T15:39:53.915Z,3.50
2018-04-06T15:42:21.588Z,5.60
2018-04-06T15:44:49.249Z,4.20
2018-04-06T15:47:16.980Z,3.27
2018-04-06T15:49:45.417Z,3.57
2018-04-06T15:52:13.083Z,3.20
2018-04-06T15:54:40.695Z,3.77
2018-04-06T15:57:08.326Z,4.23
2018-04-06T15:59:37.519Z,3.13
2018-04-06T16:02:05.240Z,2.70
2018-04-06T16:04:32.939Z,2.90
2018-04-06T16:07:00.598Z,5.23
2018-04-06T16:09:28.216Z,3.67
2018-04-06T16:11:55.908Z,3.63
2018-04-06T16:14:23.645Z,3.97
2018-04-06T16:16:51.276Z,4.73
2018-04-06T16:19:19.349Z,3.03
2018-04-06T16:21:47.449Z,5.70
2018-04-06T16:24:15.109Z,3.10
2018-04-06T16:26:43.501Z,3.83
2018-04-06T16:29:11.188Z,2.60
2018-04-06T16:31:39.626Z,4.80
2018-04-06T16:34:07.254Z,4.70
2018-04-06T16:36:35.370Z,5.77
2018-04-06T16:39:03.167Z,4.13
2018-04-06T16:41:30.829Z,4.73
2018-04-06T16:43:58.512Z,4.33
2018-04-06T16:46:27.043Z,4.43
2018-04-06T16:48:55.489Z,3.23
2018-04-06T16:51:23.945Z,5.57
2018-04-06T16:53:51.586Z,6.00
2018-04-06T16:56:19.694Z,13.00
2018-04-06T16:58:48.497Z,7.67
2018-04-06T17:01:16.129Z,7.57
2018-04-06T17:03:45.280Z,7.73
2018-04-06T17:06:12.920Z,8.23
2018-04-06T17:08:40.619Z,7.57
2018-04-06T17:11:08.232Z,8.77
2018-04-06T17:13:37.933Z,6.60
2018-04-06T17:16:05.566Z,8.63
2018-04-06T17:18:33.200Z,8.10
2018-04-06T17:21:00.873Z,10.77
2018-04-06T17:23:28.568Z,9.87
2018-04-06T17:25:56.215Z,8.87
2018-04-06T17:28:25.339Z,7.80
2018-04-06T17:30:52.996Z,9.43
2018-04-06T17:33:21.375Z,13.23
2018-04-06T17:35:49.024Z,11.13
2018-04-06T17:38:17.036Z,8.60
2018-04-06T17:40:44.677Z,7.17
2018-04-06T17:43:14.235Z,10.97
2018-04-06T17:45:42.260Z,6.07
2018-04-06T17:48:10.632Z,7.53
2018-04-06T17:50:38.276Z,9.37
2018-04-06T17:53:06.701Z,9.00
2018-04-06T17:55:35.142Z,7.73
2018-04-06T17:58:03.192Z,8.33
2018-04-06T18:00:31.667Z,9.33
2018-04-06T18:02:59.728Z,10.87
2018-04-06T18:05:27.796Z,8.73
2018-04-06T18:07:55.435Z,8.97
2018-04-06T18:10:23.095Z,5.53
2018-04-06T18:12:51.159Z,8.53
2018-04-06T18:15:19.584Z,9.43
2018-04-06T18:17:48.356Z,8.83
2018-04-06T18:20:16.009Z,8.63
2018-04-06T18:22:43.667Z,9.43
2018-04-06T18:25:12.091Z,8.63
2018-04-06T18:27:40.554Z,6.50
2018-04-06T18:30:08.644Z,8.23
2018-04-06T18:32:37.026Z,8.73
2018-04-06T18:35:04.704Z,9.33
2018-04-06T18:37:33.461Z,8.53
2018-04-06T18:40:02.045Z,7.97
2018-04-06T18:42:29.670Z,10.90
2018-04-06T18:44:57.764Z,11.00
2018-04-06T18:47:26.604Z,5.50
2018-04-06T18:49:55.026Z,7.70
2018-04-06T18:52:22.664Z,7.70
2018-04-06T18:54:50.305Z,8.00
2018-04-06T18:57:19.963Z,10.43
2018-04-06T18:59:48.420Z,11.10
2018-04-06T19:02:16.520Z,9.40
2018-04-06T19:04:44.208Z,13.00
2018-04-06T19:07:13.031Z,6.93
2018-04-06T19:09:41.439Z,11.67
2018-04-06T19:12:10.243Z,12.03
2018-04-06T19:14:38.624Z,8.73
2018-04-06T19:17:06.739Z,12.63
2018-04-06T19:19:35.287Z,12.17
2018-04-06T19:22:02.967Z,8.67
2018-04-06T19:24:31.451Z,7.57
2018-04-06T19:26:59.181Z,8.07
2018-04-06T19:29:27.195Z,13.13
2018-04-06T19:31:55.233Z,8.87
2018-04-06T19:34:22.876Z,10.77
2018-04-06T19:36:51.702Z,10.20
2018-04-06T19:39:19.546Z,15.93
2018-04-06T19:41:47.921Z,8.23
2018-04-06T19:44:16.181Z,9.27
2018-04-06T19:46:43.805Z,11.13
2018-04-06T19:49:12.640Z,10.00
2018-04-06T19:51:41.238Z,8.83
2018-04-06T19:54:08.868Z,14.27
2018-04-06T19:56:37.298Z,7.50
2018-04-06T19:59:05.409Z,9.07
2018-04-06T20:01:33.081Z,6.77
2018-04-06T20:04:00.724Z,5.93
2018-04-06T20:06:29.903Z,7.23
2018-04-06T20:08:58.403Z,9.57
2018-04-06T20:11:26.474Z,6.40
2018-04-06T20:13:54.880Z,10.03
2018-04-06T20:16:22.526Z,6.13
2018-04-06T20:18:50.200Z,7.57
2018-04-06T20:21:17.822Z,7.40
2018-04-06T20:23:45.434Z,7.67
2018-04-06T20:26:13.121Z,9.87
2018-04-06T20:28:40.819Z,6.27
2018-04-06T20:31:09.321Z,8.93
2018-04-06T20:33:37.762Z,13.57
2018-04-06T20:36:05.833Z,5.10
2018-04-06T20:38:33.528Z,7.83
2018-04-06T20:41:01.174Z,6.93
2018-04-06T20:43:29.216Z,11.53
2018-04-06T20:45:58.245Z,9.80
2018-04-06T20:48:26.295Z,11.67
2018-04-06T20:50:54.443Z,10.23
2018-04-06T20:53:22.440Z,4.50
2018-04-06T20:55:50.455Z,6.20
2018-04-06T20:58:19.624Z,7.07
2018-04-06T21:00:48.628Z,5.67
2018-04-06T21:03:16.696Z,10.10
2018-04-06T21:05:45.737Z,8.37
2018-04-06T21:08:13.392Z,5.30
2018-04-06T21:10:43.334Z,7.60
2018-04-06T21:13:12.318Z,9.40
2018-04-06T21:15:40.320Z,9.33
2018-04-06T21:18:08.364Z,6.80
2018-04-06T21:20:36.025Z,7.20
2018-04-06T21:23:04.472Z,10.33
2018-04-06T21:25:32.936Z,15.13
2018-04-06T21:28:00.592Z,8.50
2018-04-06T21:30:28.313Z,8.17
2018-04-06T21:32:56.763Z,10.17
2018-04-06T21:35:25.184Z,6.07
2018-04-06T21:37:53.292Z,9.00
2018-04-06T21:40:21.746Z,6.20
2018-04-06T21:42:49.804Z,5.73
2018-04-06T21:45:18.277Z,7.23
2018-04-06T21:47:47.310Z,5.90
2018-04-06T21:50:14.969Z,6.77
2018-04-06T21:52:43.373Z,5.63
2018-04-06T21:55:11.103Z,9.27
2018-04-06T21:57:40.124Z,6.80
2018-04-06T22:00:08.639Z,7.33
2018-04-06T22:02:36.749Z,7.17
2018-04-06T22:05:04.849Z,6.63
2018-04-06T22:07:32.507Z,7.50
2018-04-06T22:10:00.558Z,5.30
2018-04-06T22:12:29.363Z,7.03
2018-04-06T22:14:56.985Z,4.97
2018-04-06T22:17:25.039Z,6.30
2018-04-06T22:19:52.693Z,4.13
2018-04-06T22:22:20.357Z,8.67
2018-04-06T22:24:48.831Z,6.23
2018-04-06T22:27:16.473Z,4.37
2018-04-06T22:29:44.546Z,5.70
2018-04-06T22:32:12.209Z,6.47
2018-04-06T22:34:40.978Z,6.00
2018-04-06T22:37:08.612Z,6.57
2018-04-06T22:39:36.666Z,10.10
2018-04-06T22:42:04.378Z,6.93
2018-04-06T22:44:32.036Z,6.67
2018-04-06T22:47:00.081Z,5.27
2018-04-06T22:49:27.805Z,7.03
2018-04-06T22:51:55.481Z,4.23
2018-04-06T22:54:23.139Z,4.73
2018-04-06T22:56:51.214Z,6.33
2018-04-06T22:59:18.833Z,8.53
2018-04-06T23:01:46.517Z,11.63
2018-04-06T23:04:14.637Z,6.50
2018-04-06T23:06:43.819Z,8.67
2018-04-06T23:09:12.234Z,5.67
2018-04-06T23:11:40.624Z,10.07
2018-04-06T23:14:09.040Z,5.43
2018-04-06T23:16:37.479Z,4.30
2018-04-06T23:19:05.973Z,7.37
2018-04-06T23:21:33.979Z,6.67
2018-04-06T23:24:02.364Z,5.57
2018-04-06T23:26:30.879Z,4.30
2018-04-06T23:28:59.260Z,4.70
2018-04-06T23:31:27.660Z,6.37
2018-04-06T23:33:56.146Z,7.17
2018-04-06T23:36:24.187Z,7.87
2018-04-06T23:38:53.305Z,4.47
2018-04-06T23:41:20.962Z,8.23
2018-04-06T23:43:49.753Z,8.67
2018-04-06T23:46:17.394Z,7.13
2018-04-06T23:48:45.818Z,3.60
2018-04-06T23:51:14.288Z,6.57
2018-04-06T23:53:42.673Z,6.27
2018-04-06T23:56:10.284Z,6.43
2018-04-06T23:58:39.489Z,7.13
